createdAt,value
2022-07-25T00:03:39.157Z,27.53
2022-07-25T00:08:38.842Z,27.32
2022-07-25T00:13:37.630Z,27.09
2022-07-25T00:18:37.840Z,26.95
2022-07-25T00:23:36.705Z,26.96
2022-07-25T00:28:35.778Z,26.76
2022-07-25T00:33:40.568Z,26.48
2022-07-25T00:38:41.987Z,26.33
2022-07-25T00:43:45.442Z,26.35
2022-07-25T00:48:44.732Z,25.94
2022-07-25T00:53:52.442Z,26.06
2022-07-25T00:58:52.078Z,26.21
2022-07-25T01:03:51.884Z,26.23
2022-07-25T01:08:52.747Z,26.30
2022-07-25T01:13:54.839Z,26.26
2022-07-25T01:18:54.272Z,26.35
2022-07-25T01:23:57.516Z,26.15
2022-07-25T01:28:57.189Z,26.19
2022-07-25T01:33:56.423Z,26.21
2022-07-25T01:38:56.934Z,26.21
2022-07-25T01:43:56.039Z,26.23
2022-07-25T01:48:55.396Z,26.34
2022-07-25T01:53:54.522Z,26.31
2022-07-25T01:58:54.808Z,26.23
2022-07-25T02:03:54.699Z,26.25
2022-07-25T02:08:55.764Z,26.20
2022-07-25T02:13:56.318Z,26.31
2022-07-25T02:18:57.305Z,26.24
2022-07-25T02:23:56.589Z,26.35
2022-07-25T02:28:57.725Z,26.41
2022-07-25T02:33:57.334Z,26.29
2022-07-25T02:38:57.606Z,26.39
2022-07-25T02:44:00.610Z,26.31
2022-07-25T02:49:02.801Z,26.21
2022-07-25T02:54:03.198Z,26.14
2022-07-25T02:59:07.840Z,26.21
2022-07-25T03:04:12.714Z,26.19
2022-07-25T03:09:15.421Z,26.08
2022-07-25T03:14:17.739Z,26.10
2022-07-25T03:19:17.809Z,26.10
2022-07-25T03:24:21.553Z,26.08
2022-07-25T03:29:27.679Z,26.03
2022-07-25T03:34:29.844Z,26.25
2022-07-25T03:39:30.882Z,26.41
2022-07-25T03:44:40.620Z,26.59
2022-07-25T03:49:46.929Z,26.75
2022-07-25T03:55:00.635Z,26.86
2022-07-25T04:00:12.832Z,26.88
2022-07-25T04:05:14.759Z,26.86
2022-07-25T04:10:17.103Z,26.91
2022-07-25T04:15:18.372Z,26.95
2022-07-25T04:20:17.478Z,26.87
2022-07-25T04:25:19.703Z,26.97
2022-07-25T04:30:24.726Z,27.04
2022-07-25T04:35:24.235Z,27.04
2022-07-25T04:40:22.988Z,27.06
2022-07-25T04:45:23.698Z,27.14
2022-07-25T04:50:24.968Z,27.17
2022-07-25T04:55:24.187Z,27.25
2022-07-25T05:00:25.018Z,27.39
2022-07-25T05:05:23.842Z,27.49
2022-07-25T05:10:22.566Z,27.64
2022-07-25T05:15:21.513Z,27.67
2022-07-25T05:20:21.783Z,27.66
2022-07-25T05:25:20.989Z,27.73
2022-07-25T05:30:19.765Z,27.85
2022-07-25T05:35:18.560Z,27.83
2022-07-25T05:40:19.538Z,27.85
2022-07-25T05:45:18.281Z,27.76
2022-07-25T05:50:17.002Z,27.82
2022-07-25T05:55:16.080Z,27.83
2022-07-25T06:00:17.043Z,28.07
2022-07-25T06:05:15.846Z,28.19
2022-07-25T06:10:16.651Z,28.43
2022-07-25T06:15:19.763Z,28.69
2022-07-25T06:20:22.105Z,28.79
2022-07-25T06:25:20.964Z,28.82
2022-07-25T06:30:21.164Z,28.67
2022-07-25T06:35:20.324Z,28.65
2022-07-25T06:40:19.128Z,28.84
2022-07-25T06:45:17.961Z,28.95
2022-07-25T06:50:21.427Z,28.81
2022-07-25T06:55:20.441Z,28.89
2022-07-25T07:00:19.630Z,29.19
2022-07-25T07:05:20.613Z,29.38
2022-07-25T07:10:23.994Z,29.01
2022-07-25T07:15:22.839Z,28.94
2022-07-25T07:20:23.305Z,28.72
2022-07-25T07:25:24.239Z,28.59
2022-07-25T07:30:52.172Z,28.57
2022-07-25T07:35:47.744Z,28.78
2022-07-25T07:40:46.505Z,28.83
2022-07-25T07:45:45.680Z,29.02
2022-07-25T07:50:44.603Z,29.05
2022-07-25T07:55:45.486Z,29.40
2022-07-25T08:00:44.907Z,29.68
2022-07-25T08:05:45.651Z,29.76
2022-07-25T08:10:48.000Z,30.29
2022-07-25T08:15:51.889Z,30.25
2022-07-25T08:20:51.360Z,30.69
2022-07-25T08:25:59.011Z,31.17
2022-07-25T08:30:59.872Z,31.82
2022-07-25T08:35:59.794Z,32.39
2022-07-25T08:41:00.142Z,32.53
2022-07-25T08:46:01.456Z,32.82
2022-07-25T08:51:01.676Z,32.88
2022-07-25T08:56:05.369Z,33.50
2022-07-25T09:01:09.238Z,33.56
2022-07-25T09:06:21.886Z,33.95
2022-07-25T09:11:30.485Z,34.42
2022-07-25T09:16:33.910Z,35.17
2022-07-25T09:21:32.819Z,35.81
2022-07-25T09:26:32.987Z,36.76
2022-07-25T09:31:35.143Z,37.64
2022-07-25T09:36:35.634Z,38.59
2022-07-25T09:41:40.613Z,39.10
2022-07-25T09:46:39.534Z,39.22
2022-07-25T09:51:38.508Z,39.98
2022-07-25T09:56:38.550Z,41.35
2022-07-25T10:01:41.441Z,40.58
2022-07-25T10:06:46.307Z,41.41
2022-07-25T10:12:10.153Z,41.97
2022-07-25T10:17:10.538Z,42.38
2022-07-25T10:22:15.085Z,41.79
2022-07-25T10:27:22.311Z,41.99
2022-07-25T10:32:21.405Z,42.15
2022-07-25T10:37:21.306Z,42.26
2022-07-25T10:42:26.792Z,42.59
2022-07-25T10:47:28.309Z,42.39
2022-07-25T10:52:29.923Z,42.52
2022-07-25T10:57:32.276Z,41.96
2022-07-25T11:02:32.907Z,42.60
2022-07-25T11:07:36.191Z,44.08
2022-07-25T11:12:37.558Z,44.59
2022-07-25T11:17:36.323Z,44.80
2022-07-25T11:22:35.913Z,44.94
2022-07-25T11:27:36.866Z,44.33
2022-07-25T11:32:40.481Z,44.52
2022-07-25T11:37:41.708Z,44.66
2022-07-25T11:42:44.070Z,44.75
2022-07-25T11:47:43.081Z,43.91
2022-07-25T11:52:46.063Z,43.89
2022-07-25T11:57:49.227Z,42.85
2022-07-25T12:02:49.578Z,42.92
2022-07-25T12:07:51.520Z,43.06
2022-07-25T12:12:54.799Z,42.69
2022-07-25T12:17:55.590Z,43.28
2022-07-25T12:23:00.377Z,43.40
2022-07-25T12:28:10.738Z,44.19
2022-07-25T12:33:14.913Z,44.51
2022-07-25T12:38:14.499Z,45.57
2022-07-25T12:43:14.673Z,46.23
2022-07-25T12:48:14.901Z,46.55
2022-07-25T12:53:14.655Z,46.32
2022-07-25T12:58:15.289Z,46.30
2022-07-25T13:03:15.513Z,45.77
2022-07-25T13:08:14.225Z,46.17
2022-07-25T13:13:14.789Z,46.12
2022-07-25T13:18:13.516Z,46.76
2022-07-25T13:23:13.642Z,46.71
2022-07-25T13:28:17.029Z,45.72
2022-07-25T13:33:15.767Z,45.64
2022-07-25T13:38:15.068Z,45.86
2022-07-25T13:43:16.103Z,45.04
2022-07-25T13:48:30.915Z,45.25
2022-07-25T13:53:30.930Z,45.46
2022-07-25T13:58:31.258Z,46.21
2022-07-25T14:03:30.682Z,46.36
2022-07-25T14:08:29.381Z,47.17
2022-07-25T14:13:28.079Z,48.31
2022-07-25T14:18:28.186Z,47.90
2022-07-25T14:23:30.076Z,48.14
2022-07-25T14:28:29.036Z,48.49
2022-07-25T14:33:29.244Z,48.91
2022-07-25T14:38:28.053Z,48.84
2022-07-25T14:43:26.885Z,48.96
2022-07-25T14:48:25.752Z,48.93
2022-07-25T14:53:26.017Z,48.60
2022-07-25T14:58:25.445Z,48.67
2022-07-25T15:03:24.227Z,48.37
2022-07-25T15:08:26.659Z,48.23
2022-07-25T15:13:32.938Z,47.42
2022-07-25T15:18:32.213Z,47.44
2022-07-25T15:23:32.337Z,47.57
2022-07-25T15:28:31.395Z,47.78
2022-07-25T15:33:30.665Z,47.80
2022-07-25T15:38:30.943Z,47.59
2022-07-25T15:43:31.214Z,47.03
2022-07-25T15:48:30.124Z,46.84
2022-07-25T15:53:30.445Z,46.56
2022-07-25T15:58:30.674Z,46.22
2022-07-25T16:03:29.824Z,45.67
2022-07-25T16:08:28.695Z,45.47
2022-07-25T16:13:28.228Z,45.05
2022-07-25T16:18:28.480Z,44.81
2022-07-25T16:23:28.355Z,44.37
2022-07-25T16:28:27.684Z,43.90
2022-07-25T16:33:28.195Z,43.62
2022-07-25T16:38:27.645Z,43.35
2022-07-25T16:43:31.454Z,43.03
2022-07-25T16:48:35.257Z,42.60
2022-07-25T16:53:35.893Z,42.24
2022-07-25T16:58:35.086Z,41.87
2022-07-25T17:03:35.643Z,41.47
2022-07-25T17:08:35.274Z,41.06
2022-07-25T17:13:34.171Z,40.57
2022-07-25T17:18:33.025Z,40.05
2022-07-25T17:23:35.842Z,39.72
2022-07-25T17:28:38.120Z,39.39
2022-07-25T17:33:37.251Z,39.05
2022-07-25T17:38:38.168Z,38.71
2022-07-25T17:43:37.134Z,38.36
2022-07-25T17:48:36.354Z,38.05
2022-07-25T17:53:35.245Z,37.77
2022-07-25T17:58:35.655Z,37.53
2022-07-25T18:03:34.502Z,37.27
2022-07-25T18:08:35.452Z,36.98
2022-07-25T18:13:36.136Z,36.73
2022-07-25T18:18:37.467Z,36.49
2022-07-25T18:23:36.273Z,36.19
2022-07-25T18:28:36.964Z,35.98
2022-07-25T18:33:37.869Z,35.82
2022-07-25T18:38:37.342Z,35.65
2022-07-25T18:43:37.823Z,35.46
2022-07-25T18:48:37.431Z,35.30
2022-07-25T18:53:37.013Z,35.12
2022-07-25T18:58:37.759Z,34.97
2022-07-25T19:03:39.943Z,34.84
2022-07-25T19:08:39.375Z,34.68
2022-07-25T19:13:50.007Z,34.56
2022-07-25T19:18:49.781Z,34.44
2022-07-25T19:23:51.225Z,34.30
2022-07-25T19:28:51.902Z,34.22
2022-07-25T19:33:50.765Z,34.10
2022-07-25T19:38:49.736Z,34.00
2022-07-25T19:43:48.582Z,33.89
2022-07-25T19:48:48.897Z,33.80
2022-07-25T19:53:47.508Z,33.56
2022-07-25T19:58:46.481Z,33.57
2022-07-25T20:03:45.431Z,33.48
2022-07-25T20:08:45.670Z,33.41
2022-07-25T20:13:44.517Z,33.30
2022-07-25T20:18:43.437Z,33.15
2022-07-25T20:23:51.814Z,32.96
2022-07-25T20:28:50.814Z,32.84
2022-07-25T20:33:50.463Z,32.77
2022-07-25T20:38:50.955Z,32.70
2022-07-25T20:43:49.562Z,32.44
2022-07-25T20:48:48.326Z,32.37
2022-07-25T20:53:51.691Z,32.19
2022-07-25T20:58:53.878Z,32.07
2022-07-25T21:03:52.761Z,31.90
2022-07-25T21:08:51.628Z,31.81
2022-07-25T21:13:51.204Z,31.74
2022-07-25T21:18:51.393Z,31.65
2022-07-25T21:23:50.302Z,31.57
2022-07-25T21:28:49.107Z,31.50
2022-07-25T21:33:50.471Z,31.41
2022-07-25T21:38:50.691Z,31.38
2022-07-25T21:43:49.677Z,31.27
2022-07-25T21:49:06.020Z,31.20
2022-07-25T21:54:07.157Z,31.15
2022-07-25T21:59:06.888Z,31.10
2022-07-25T22:04:06.771Z,31.01
2022-07-25T22:09:08.208Z,30.86
2022-07-25T22:14:08.973Z,30.73
2022-07-25T22:19:08.304Z,30.54
2022-07-25T22:24:09.394Z,30.29
2022-07-25T22:29:08.283Z,29.92
2022-07-25T22:34:07.384Z,29.78
2022-07-25T22:39:06.488Z,29.72
2022-07-25T22:44:07.126Z,29.40
2022-07-25T22:49:06.800Z,29.37
2022-07-25T22:54:06.440Z,29.37
2022-07-25T22:59:06.980Z,29.28
2022-07-25T23:04:06.273Z,29.37
2022-07-25T23:09:05.549Z,29.42
2022-07-25T23:14:04.640Z,29.25
2022-07-25T23:19:05.058Z,29.20
2022-07-25T23:24:04.119Z,29.20
2022-07-25T23:29:02.964Z,29.25
2022-07-25T23:34:01.823Z,29.22
2022-07-25T23:39:02.052Z,29.30
2022-07-25T23:44:00.976Z,29.43
2022-07-25T23:49:01.061Z,29.38
2022-07-25T23:54:03.652Z,29.36
2022-07-25T23:59:02.563Z,29.32
